Time;durP1;ratioP1;P1;durP2;ratioP2;P2;SDS_P1;SDS_P2;PMS_P1;PMS_P2;Temp;Humidity;BMP_temperature;BMP_pressure;BME280_temperature;BME280_humidity;BME280_pressure;Samples;Min_cycle;Max_cycle;Signal;HPM_P1;HPM_P2
2021/10/07 00:01:56;;;;;;;4.07;2.67;;;;;;;7.60;90.81;99274.44;4170550;28;20487;-71
2021/10/07 00:03:56;;;;;;;3.05;2.45;;;;;;;7.64;90.81;99265.50;4169585;28;20128;-71
2021/10/07 00:05:57;;;;;;;3.88;2.72;;;;;;;7.67;90.09;99267.56;4170747;28;20107;-71
2021/10/07 00:07:57;;;;;;;3.40;2.20;;;;;;;7.70;89.42;99269.66;4170194;28;20464;-71
2021/10/07 00:09:57;;;;;;;5.22;2.65;;;;;;;7.75;89.24;99275.75;4171359;28;20504;-71
2021/10/07 00:11:58;;;;;;;4.28;2.60;;;;;;;7.76;89.59;99266.34;4169623;28;20095;-71
2021/10/07 00:13:59;;;;;;;4.57;2.78;;;;;;;7.70;89.84;99275.19;4170006;28;20132;-71
2021/10/07 00:16:00;;;;;;;3.72;2.60;;;;;;;7.65;90.55;99276.19;4170905;28;20049;-71
2021/10/07 00:18:00;;;;;;;5.75;2.90;;;;;;;7.60;90.62;99281.88;4170187;28;20056;-71
2021/10/07 00:20:01;;;;;;;3.40;2.80;;;;;;;7.55;91.15;99271.09;4169507;28;20052;-71
2021/10/07 00:22:02;;;;;;;5.75;2.70;;;;;;;7.57;89.85;99268.81;4170045;28;20051;-71
2021/10/07 00:24:09;;;;;;;3.75;2.80;;;;;;;7.62;89.63;99276.06;4168963;28;20123;-71
2021/10/07 00:26:09;;;;;;;3.00;2.22;;;;;;;7.59;90.09;99286.59;4170682;28;20064;-71
2021/10/07 00:28:10;;;;;;;4.15;3.50;;;;;;;7.58;91.14;99275.91;4169993;28;20036;-71
2021/10/07 00:30:17;;;;;;;3.85;2.47;;;;;;;7.54;91.65;99275.81;4171285;28;20032;-71
2021/10/07 00:32:21;;;;;;;6.32;3.63;;;;;;;7.51;92.18;99289.44;4168506;28;20032;-71
2021/10/07 00:36:58;;;;;;;6.20;2.78;;;;;;;7.48;92.62;99298.38;4170573;28;20044;-71
2021/10/07 00:39:07;;;;;;;5.00;2.72;;;;;;;7.47;92.73;99292.06;4171364;28;20048;-71
2021/10/07 00:41:08;;;;;;;5.32;3.40;;;;;;;7.45;93.07;99293.56;4169194;28;20033;-71
2021/10/07 00:43:08;;;;;;;6.82;2.88;;;;;;;7.45;92.50;99285.28;4170678;28;20048;-71
2021/10/07 00:45:09;;;;;;;3.80;3.35;;;;;;;7.51;91.64;99297.69;4169097;28;20037;-71
2021/10/07 00:47:09;;;;;;;4.90;2.80;;;;;;;7.50;92.27;99296.09;4170548;28;20041;-71
2021/10/07 00:49:09;;;;;;;8.40;2.90;;;;;;;7.47;92.83;99300.31;4169317;28;20060;-71
2021/10/07 00:51:10;;;;;;;4.57;3.00;;;;;;;7.55;92.00;99302.19;4170014;28;20056;-71
2021/10/07 00:53:11;;;;;;;4.70;2.95;;;;;;;7.63;91.37;99306.03;4170292;28;20479;-71
2021/10/07 00:55:12;;;;;;;4.40;2.85;;;;;;;7.65;91.38;99300.16;4168426;28;20072;-71
2021/10/07 00:57:17;;;;;;;7.07;3.25;;;;;;;7.64;91.27;99306.81;4152903;28;20057;-71
2021/10/07 00:59:17;;;;;;;4.85;3.28;;;;;;;7.60;91.46;99299.22;4168253;28;20036;-71
2021/10/07 01:01:18;;;;;;;7.20;3.40;;;;;;;7.55;92.38;99304.94;4170553;28;20052;-71
2021/10/07 01:03:18;;;;;;;4.13;3.10;;;;;;;7.47;92.59;99297.56;4168733;28;20048;-72
2021/10/07 01:05:21;;;;;;;4.68;3.13;;;;;;;7.48;92.61;99301.94;4169845;28;20060;-71
2021/10/07 01:07:22;;;;;;;3.83;2.95;;;;;;;7.51;92.19;99309.50;4170253;28;20040;-71
2021/10/07 01:09:22;;;;;;;3.28;2.67;;;;;;;7.56;92.16;99311.25;4170721;28;20041;-71
2021/10/07 01:11:22;;;;;;;4.50;2.90;;;;;;;7.60;91.98;99309.44;4169763;28;20045;-71
2021/10/07 01:13:23;;;;;;;4.15;3.30;;;;;;;7.68;90.94;99314.06;4169224;28;20049;-71
2021/10/07 01:15:23;;;;;;;6.18;3.42;;;;;;;7.74;90.52;99307.19;4169601;28;20048;-71
2021/10/07 01:17:26;;;;;;;3.53;3.13;;;;;;;7.76;91.62;99302.16;4169036;28;20041;-71
2021/10/07 01:19:27;;;;;;;4.20;3.17;;;;;;;7.78;91.54;99313.66;4165523;28;20431;-71
2021/10/07 01:21:28;;;;;;;4.03;2.95;;;;;;;7.75;91.72;99317.06;4165677;28;20098;-71
2021/10/07 01:23:28;;;;;;;3.85;3.15;;;;;;;7.70;92.09;99322.81;4167869;28;20315;-71
2021/10/07 01:25:32;;;;;;;5.85;3.20;;;;;;;7.63;92.49;99322.53;4167795;28;20053;-71
2021/10/07 01:27:33;;;;;;;4.25;2.90;;;;;;;7.62;92.43;99329.19;4167398;28;20084;-71
2021/10/07 01:29:33;;;;;;;4.97;3.30;;;;;;;7.59;92.63;99325.16;4167585;28;20057;-71
2021/10/07 01:31:34;;;;;;;3.78;3.10;;;;;;;7.55;92.80;99320.66;4169978;28;20378;-71
2021/10/07 01:33:34;;;;;;;7.07;3.08;;;;;;;7.60;91.95;99335.03;4168392;28;20033;-71
2021/10/07 01:35:35;;;;;;;4.60;3.30;;;;;;;7.66;92.21;99334.81;4169854;28;20052;-71
2021/10/07 01:37:36;;;;;;;5.72;4.03;;;;;;;7.69;92.02;99323.91;4166751;28;20163;-71
2021/10/07 01:39:37;;;;;;;6.50;3.60;;;;;;;7.80;91.52;99332.59;4170264;28;20116;-71
2021/10/07 01:41:37;;;;;;;4.28;3.88;;;;;;;7.81;91.52;99332.25;4169291;28;20052;-71
2021/10/07 01:43:37;;;;;;;6.78;3.33;;;;;;;7.86;90.69;99332.06;4168682;28;20434;-71
2021/10/07 01:45:38;;;;;;;4.25;3.47;;;;;;;7.91;90.95;99327.47;4168936;28;20418;-71
2021/10/07 01:47:38;;;;;;;4.20;3.60;;;;;;;7.96;90.18;99335.53;4169228;28;20041;-71
2021/10/07 01:49:38;;;;;;;5.55;3.30;;;;;;;8.01;90.03;99327.81;4169641;28;20044;-71
2021/10/07 01:51:39;;;;;;;4.18;3.05;;;;;;;8.04;90.14;99329.13;4150905;28;20037;-71
2021/10/07 01:53:39;;;;;;;5.38;3.20;;;;;;;8.09;89.53;99337.16;4168169;28;20107;-71
2021/10/07 01:55:40;;;;;;;7.03;2.75;;;;;;;8.12;89.51;99340.03;4168088;28;20132;-71
2021/10/07 01:57:40;;;;;;;7.18;3.30;;;;;;;8.11;89.12;99340.41;4168981;28;20048;-71
2021/10/07 01:59:40;;;;;;;4.00;3.05;;;;;;;8.13;89.36;99343.59;4170337;28;20416;-71
2021/10/07 02:01:41;;;;;;;7.25;4.55;;;;;;;8.12;89.47;99345.56;4169204;28;20257;-72
2021/10/07 02:03:41;;;;;;;5.25;3.08;;;;;;;8.11;89.89;99346.72;4168605;28;20037;-71
2021/10/07 02:05:41;;;;;;;4.47;3.22;;;;;;;8.09;89.08;99354.50;4168888;28;20057;-71
2021/10/07 02:07:42;;;;;;;9.77;3.20;;;;;;;8.07;89.58;99350.47;4168657;28;20045;-71
2021/10/07 02:09:42;;;;;;;3.50;3.00;;;;;;;8.04;90.00;99351.97;4169281;28;20060;-71
2021/10/07 02:11:42;;;;;;;5.80;3.38;;;;;;;7.99;90.71;99346.66;4170103;28;20802;-71
2021/10/07 02:13:43;;;;;;;5.72;3.05;;;;;;;7.93;90.59;99350.75;4168396;28;20052;-71
2021/10/07 02:15:43;;;;;;;4.35;3.08;;;;;;;7.93;90.25;99345.25;4169181;28;20102;-71
2021/10/07 02:17:44;;;;;;;8.45;2.88;;;;;;;7.96;90.56;99349.31;4168788;28;20595;-71
2021/10/07 02:19:44;;;;;;;3.67;2.50;;;;;;;7.96;90.66;99341.84;4168934;28;20114;-71
2021/10/07 02:21:44;;;;;;;4.03;2.95;;;;;;;7.95;90.18;99350.44;4169889;28;20060;-71
2021/10/07 02:23:45;;;;;;;5.75;3.10;;;;;;;7.91;91.10;99346.75;4167918;28;20068;-71
2021/10/07 02:25:45;;;;;;;5.00;2.70;;;;;;;7.89;91.18;99349.84;4168554;28;20054;-71
2021/10/07 02:27:46;;;;;;;9.30;2.85;;;;;;;7.94;90.33;99354.31;4169299;28;20040;-71
2021/10/07 02:29:46;;;;;;;3.08;2.53;;;;;;;7.97;90.41;99359.19;4168750;28;20633;-71
2021/10/07 02:31:46;;;;;;;3.40;2.67;;;;;;;7.99;91.02;99363.19;4168886;28;20041;-71
2021/10/07 02:33:48;;;;;;;3.90;2.28;;;;;;;8.01;90.75;99360.09;4167932;28;20049;-71
2021/10/07 02:35:49;;;;;;;3.13;2.50;;;;;;;8.03;90.85;99364.13;4169713;28;20186;-71
2021/10/07 02:37:49;;;;;;;6.15;2.78;;;;;;;8.04;90.27;99354.72;4168292;28;20469;-71
2021/10/07 02:39:50;;;;;;;3.80;2.95;;;;;;;8.05;90.80;99358.28;4169222;28;20045;-71
2021/10/07 02:41:50;;;;;;;7.00;2.92;;;;;;;8.04;91.26;99367.69;4163055;28;20101;-71
2021/10/07 02:43:50;;;;;;;4.18;2.92;;;;;;;8.02;92.06;99361.69;4165389;28;20048;-71
2021/10/07 02:45:51;;;;;;;3.13;2.50;;;;;;;7.98;92.12;99361.59;4161832;28;20045;-71
2021/10/07 02:47:51;;;;;;;4.10;2.45;;;;;;;7.98;92.16;99353.31;4161381;28;20068;-71
2021/10/07 02:49:51;;;;;;;4.07;3.15;;;;;;;7.99;92.20;99365.94;4167555;28;20075;-71
2021/10/07 02:51:52;;;;;;;4.93;2.55;;;;;;;8.00;91.97;99361.25;4170398;28;20126;-72
2021/10/07 02:53:52;;;;;;;3.35;2.53;;;;;;;8.02;92.27;99361.69;4170129;28;20055;-72
2021/10/07 02:55:53;;;;;;;3.72;2.42;;;;;;;8.02;92.48;99368.00;4170445;28;20041;-71
2021/10/07 02:57:53;;;;;;;7.65;3.85;;;;;;;8.02;92.62;99361.69;4170824;28;20374;-72
2021/10/07 02:59:53;;;;;;;13.43;7.72;;;;;;;8.04;92.67;99365.75;4172026;28;20052;-71
2021/10/07 03:01:54;;;;;;;10.80;5.47;;;;;;;8.04;92.41;99368.50;4171367;28;20090;-71
2021/10/07 03:03:54;;;;;;;11.68;4.80;;;;;;;8.07;91.66;99362.31;4171701;28;20477;-71
2021/10/07 03:05:55;;;;;;;8.50;4.35;;;;;;;8.11;91.17;99360.50;4171835;28;20037;-71
2021/10/07 03:07:55;;;;;;;6.28;3.05;;;;;;;8.13;91.01;99371.16;4171410;28;20420;-71
2021/10/07 03:09:56;;;;;;;3.90;3.20;;;;;;;8.12;91.59;99362.09;4172469;28;20532;-71
2021/10/07 03:11:56;;;;;;;3.53;2.92;;;;;;;8.14;91.23;99367.25;4171827;28;20045;-71
2021/10/07 03:13:57;;;;;;;3.35;2.90;;;;;;;8.14;91.10;99370.81;4170776;28;20045;-72
2021/10/07 03:15:57;;;;;;;4.10;2.92;;;;;;;8.15;91.27;99377.94;4172174;28;20041;-72
2021/10/07 03:17:57;;;;;;;3.63;2.90;;;;;;;8.15;91.19;99375.19;4171104;28;20095;-71
2021/10/07 03:19:58;;;;;;;6.53;4.10;;;;;;;8.14;91.21;99375.53;4171709;28;20045;-71
2021/10/07 03:21:58;;;;;;;3.65;2.80;;;;;;;8.14;92.44;99370.03;4171249;28;20389;-71
2021/10/07 03:23:58;;;;;;;3.90;3.05;;;;;;;8.12;92.71;99381.38;4170295;28;20052;-71
2021/10/07 03:25:59;;;;;;;3.58;2.63;;;;;;;8.12;91.90;99383.34;4171080;28;20584;-71
2021/10/07 03:27:59;;;;;;;4.78;2.75;;;;;;;8.17;91.17;99392.19;4171213;28;20041;-71
2021/10/07 03:29:59;;;;;;;5.40;2.95;;;;;;;8.21;91.21;99397.03;4172092;28;20465;-71
2021/10/07 03:32:00;;;;;;;3.45;2.92;;;;;;;8.16;92.61;99403.56;4171200;28;20045;-72
2021/10/07 03:34:00;;;;;;;3.78;3.05;;;;;;;8.05;92.89;99408.69;4171322;28;20041;-71
2021/10/07 03:36:01;;;;;;;4.47;3.58;;;;;;;7.97;93.50;99408.78;4167635;28;20037;-71
2021/10/07 03:38:02;;;;;;;4.30;3.20;;;;;;;7.87;93.20;99408.06;4171152;28;20039;-71
2021/10/07 03:40:05;;;;;;;5.28;3.40;;;;;;;7.81;93.74;99414.91;4171560;28;20029;-71
2021/10/07 03:42:05;;;;;;;5.00;3.75;;;;;;;7.73;94.89;99413.03;4171258;28;20180;-71
2021/10/07 03:44:06;;;;;;;4.30;3.45;;;;;;;7.67;94.83;99413.56;4170374;28;20040;-71
2021/10/07 03:46:06;;;;;;;4.32;3.20;;;;;;;7.61;94.97;99415.69;4171433;28;20033;-71
2021/10/07 03:48:07;;;;;;;4.75;3.42;;;;;;;7.59;95.13;99424.28;4171565;28;20453;-71
2021/10/07 03:50:07;;;;;;;6.57;3.70;;;;;;;7.58;94.77;99416.38;4171294;28;20176;-71
2021/10/07 03:52:08;;;;;;;4.50;3.15;;;;;;;7.58;94.42;99430.94;4171140;28;20044;-72
2021/10/07 03:54:08;;;;;;;4.63;3.30;;;;;;;7.60;94.15;99428.66;4170599;28;20443;-71
2021/10/07 03:56:08;;;;;;;7.47;3.58;;;;;;;7.60;93.61;99419.59;4170603;28;20041;-71
2021/10/07 03:58:09;;;;;;;4.43;3.35;;;;;;;7.65;94.07;99433.19;4171413;28;20479;-71
2021/10/07 04:00:10;;;;;;;6.72;3.40;;;;;;;7.70;94.10;99435.75;4169861;28;20472;-71
2021/10/07 04:02:10;;;;;;;6.85;3.67;;;;;;;7.76;92.81;99434.38;4170852;28;20048;-71
2021/10/07 04:04:10;;;;;;;7.18;3.50;;;;;;;7.80;93.02;99434.53;4170108;28;20039;-71
2021/10/07 04:06:11;;;;;;;4.55;3.50;;;;;;;7.83;92.86;99429.13;4170579;28;20048;-71
2021/10/07 04:08:11;;;;;;;5.05;3.20;;;;;;;7.84;92.85;99432.69;4170768;28;20036;-71
2021/10/07 04:10:12;;;;;;;5.45;3.33;;;;;;;7.84;92.23;99436.25;4171095;28;20070;-71
2021/10/07 04:12:12;;;;;;;4.35;3.15;;;;;;;7.84;92.72;99436.25;4170248;28;20451;-71
2021/10/07 04:14:12;;;;;;;8.15;3.92;;;;;;;7.80;92.64;99438.09;4169190;28;20068;-71
2021/10/07 04:16:14;;;;;;;7.35;4.00;;;;;;;7.76;93.41;99439.09;4171068;28;20041;-71
2021/10/07 04:18:14;;;;;;;4.97;3.40;;;;;;;7.71;93.97;99439.31;4169331;28;20347;-71
2021/10/07 04:20:15;;;;;;;5.88;3.92;;;;;;;7.67;94.01;99444.66;4170622;28;20025;-71
2021/10/07 04:22:15;;;;;;;5.78;3.45;;;;;;;7.66;93.63;99451.31;4170526;28;20370;-71
2021/10/07 04:24:15;;;;;;;4.75;3.53;;;;;;;7.63;93.71;99443.72;4169591;28;20320;-71
2021/10/07 04:26:16;;;;;;;6.60;3.40;;;;;;;7.64;93.54;99455.56;4171277;28;20094;-71
2021/10/07 04:28:16;;;;;;;6.47;3.15;;;;;;;7.64;93.01;99458.31;4169714;28;20040;-71
2021/10/07 04:30:16;;;;;;;4.40;2.97;;;;;;;7.63;93.11;99460.25;4170922;28;20452;-71
2021/10/07 04:32:17;;;;;;;3.70;3.20;;;;;;;7.61;92.62;99448.75;4171066;28;20033;-71
2021/10/07 04:34:17;;;;;;;7.20;2.88;;;;;;;7.65;92.75;99455.22;4169279;28;20034;-71
2021/10/07 04:36:18;;;;;;;6.70;2.85;;;;;;;7.66;92.25;99454.06;4171040;28;20457;-71
2021/10/07 04:38:18;;;;;;;5.25;2.92;;;;;;;7.63;92.73;99460.25;4169302;28;20029;-71
2021/10/07 04:40:18;;;;;;;4.07;3.00;;;;;;;7.58;92.87;99464.00;4169142;28;20270;-71
2021/10/07 04:42:19;;;;;;;4.18;3.22;;;;;;;7.56;93.13;99469.03;4169590;28;20043;-71
2021/10/07 04:44:19;;;;;;;3.75;2.83;;;;;;;7.52;93.71;99475.53;4170162;28;20033;-71
2021/10/07 04:46:22;;;;;;;7.20;3.90;;;;;;;7.48;94.14;99482.88;4169101;28;20037;-71
2021/10/07 04:48:22;;;;;;;6.35;3.05;;;;;;;7.45;94.22;99484.34;4169503;28;20092;-71
2021/10/07 04:50:22;;;;;;;7.43;3.72;;;;;;;7.42;94.32;99490.50;4170779;28;20311;-71
2021/10/07 04:52:23;;;;;;;4.95;2.83;;;;;;;7.44;94.32;99490.97;4168958;28;20047;-71
2021/10/07 04:54:23;;;;;;;3.80;2.70;;;;;;;7.45;93.92;99495.34;4169337;28;20120;-71
2021/10/07 04:56:23;;;;;;;4.65;3.30;;;;;;;7.40;94.18;99498.28;4169484;28;20508;-71
2021/10/07 04:58:24;;;;;;;5.55;3.63;;;;;;;7.36;94.68;99511.09;4169814;28;20102;-71
2021/10/07 05:00:25;;;;;;;4.18;3.38;;;;;;;7.27;95.09;99502.88;4169638;28;20538;-71
2021/10/07 05:02:25;;;;;;;4.50;2.97;;;;;;;7.27;94.92;99511.13;4169582;28;20041;-71
2021/10/07 05:04:26;;;;;;;4.85;3.25;;;;;;;7.26;94.54;99514.22;4169413;28;20465;-71
2021/10/07 05:06:26;;;;;;;5.20;3.50;;;;;;;7.24;94.35;99520.06;4170873;28;20044;-71
2021/10/07 05:08:26;;;;;;;5.55;3.33;;;;;;;7.24;94.82;99531.06;4169363;28;20044;-71
2021/10/07 05:10:27;;;;;;;5.22;3.63;;;;;;;7.21;94.46;99522.69;4169545;28;20060;-71
2021/10/07 05:12:27;;;;;;;6.10;3.50;;;;;;;7.22;94.68;99530.59;4169884;28;20292;-70
2021/10/07 05:14:27;;;;;;;6.30;4.00;;;;;;;7.16;95.03;99531.09;4167967;28;20401;-71
2021/10/07 05:16:28;;;;;;;5.35;3.72;;;;;;;7.12;95.08;99532.91;4168833;28;20539;-71
2021/10/07 05:18:28;;;;;;;6.45;3.72;;;;;;;7.08;94.92;99531.94;4170394;28;20033;-71
2021/10/07 05:20:28;;;;;;;9.38;4.05;;;;;;;7.02;94.53;99534.06;4168489;28;20055;-71
2021/10/07 05:22:29;;;;;;;8.13;3.78;;;;;;;6.98;95.14;99541.38;4169125;28;20048;-71
2021/10/07 05:24:30;;;;;;;4.22;3.50;;;;;;;6.94;94.32;99545.91;4168581;28;20072;-71
2021/10/07 05:26:31;;;;;;;7.47;3.42;;;;;;;6.91;94.55;99538.31;4168134;28;20162;-71
2021/10/07 05:28:31;;;;;;;6.22;3.80;;;;;;;6.90;94.17;99542.19;4167854;28;20041;-72
2021/10/07 05:30:31;;;;;;;7.55;3.95;;;;;;;6.86;94.50;99553.03;4169233;28;20420;-71
2021/10/07 05:32:32;;;;;;;9.13;3.80;;;;;;;6.78;94.85;99551.13;4170013;28;20777;-71
2021/10/07 05:34:32;;;;;;;4.72;3.08;;;;;;;6.69;95.12;99553.88;4168131;28;20312;-72
2021/10/07 05:36:33;;;;;;;6.45;3.78;;;;;;;6.69;95.31;99555.81;4169743;28;20094;-71
2021/10/07 05:38:33;;;;;;;5.45;3.80;;;;;;;6.68;94.93;99545.97;4169248;28;20079;-71
2021/10/07 05:40:33;;;;;;;6.32;4.18;;;;;;;6.69;94.77;99559.38;4169864;28;20477;-71
2021/10/07 05:42:34;;;;;;;11.07;4.53;;;;;;;6.68;94.64;99563.28;4169082;28;20047;-71
2021/10/07 05:44:34;;;;;;;5.60;3.95;;;;;;;6.65;94.79;99565.88;4168059;28;20041;-71
2021/10/07 05:46:35;;;;;;;7.25;4.40;;;;;;;6.59;95.31;99567.16;4169106;28;20049;-71
2021/10/07 05:48:36;;;;;;;4.57;3.63;;;;;;;6.54;95.31;99567.31;4169046;28;20037;-71
2021/10/07 05:50:36;;;;;;;8.07;4.03;;;;;;;6.49;95.69;99573.81;4168384;28;20325;-71
2021/10/07 05:52:37;;;;;;;5.90;3.95;;;;;;;6.44;95.61;99584.97;4167750;28;20516;-71
2021/10/07 05:54:37;;;;;;;5.95;4.28;;;;;;;6.39;96.08;99576.88;4165409;28;20041;-71
2021/10/07 05:56:38;;;;;;;6.03;3.67;;;;;;;6.34;96.50;99577.84;4169962;28;20062;-71
2021/10/07 05:58:38;;;;;;;5.25;3.70;;;;;;;6.35;96.44;99571.22;4169553;28;20041;-71
2021/10/07 06:00:38;;;;;;;5.72;3.83;;;;;;;6.37;96.33;99577.22;4169362;28;20293;-71
2021/10/07 06:02:39;;;;;;;7.65;3.80;;;;;;;6.42;95.61;99574.28;4168881;28;20045;-71
2021/10/07 06:04:39;;;;;;;7.88;3.70;;;;;;;6.52;95.17;99578.66;4167769;28;20049;-71
2021/10/07 06:06:39;;;;;;;6.80;4.32;;;;;;;6.56;94.81;99578.81;4169316;28;20068;-71
2021/10/07 06:08:40;;;;;;;5.38;3.60;;;;;;;6.59;94.83;99565.22;4168501;28;20036;-71
2021/10/07 06:10:40;;;;;;;6.80;3.95;;;;;;;6.63;94.44;99579.97;4169310;28;20419;-71
2021/10/07 06:12:44;;;;;;;5.95;4.25;;;;;;;6.63;94.01;99582.69;4169295;28;20045;-71
2021/10/07 06:14:44;;;;;;;9.77;4.22;;;;;;;6.66;94.40;99582.03;4166413;28;20120;-71
2021/10/07 06:16:44;;;;;;;8.60;4.18;;;;;;;6.72;94.84;99585.44;4169283;28;20052;-71
2021/10/07 06:18:47;;;;;;;5.53;3.63;;;;;;;6.73;94.37;99579.63;4168516;28;20087;-71
2021/10/07 06:20:47;;;;;;;4.85;4.05;;;;;;;6.72;94.02;99594.50;4168726;28;20057;-71
2021/10/07 06:22:48;;;;;;;5.50;3.85;;;;;;;6.69;94.20;99592.38;4168234;28;20056;-71
2021/10/07 06:24:48;;;;;;;5.30;3.53;;;;;;;6.71;94.85;99590.13;4149814;28;20052;-71
2021/10/07 06:26:49;;;;;;;5.10;3.83;;;;;;;6.72;94.07;99591.75;4167601;28;20376;-71
2021/10/07 06:28:49;;;;;;;5.50;3.75;;;;;;;6.76;94.66;99598.22;4169368;28;20551;-71
2021/10/07 06:30:50;;;;;;;5.82;3.67;;;;;;;6.72;94.66;99601.94;4169266;28;20047;-71
2021/10/07 06:32:50;;;;;;;6.40;3.72;;;;;;;6.72;94.73;99600.00;4169439;28;20048;-71
2021/10/07 06:34:51;;;;;;;5.40;3.97;;;;;;;6.73;94.83;99600.81;4167855;28;20041;-71
2021/10/07 06:36:51;;;;;;;10.55;4.82;;;;;;;6.73;94.86;99607.13;4168002;28;20247;-71
2021/10/07 06:38:51;;;;;;;5.80;4.38;;;;;;;6.75;95.28;99609.53;4169012;28;20029;-71
2021/10/07 06:40:52;;;;;;;8.88;5.45;;;;;;;6.79;95.56;99618.78;4168576;28;20110;-71
2021/10/07 06:42:52;;;;;;;6.60;4.20;;;;;;;6.83;95.76;99613.41;4168253;28;20064;-71
2021/10/07 06:44:53;;;;;;;6.00;4.65;;;;;;;6.89;95.65;99610.19;4168002;28;20155;-71
2021/10/07 06:46:53;;;;;;;14.82;4.78;;;;;;;6.92;95.79;99612.25;4167746;28;20052;-71
2021/10/07 06:48:55;;;;;;;8.00;4.70;;;;;;;6.99;95.08;99626.34;4168596;28;20439;-71
2021/10/07 06:50:55;;;;;;;7.90;5.07;;;;;;;7.05;96.04;99624.22;4168372;28;20106;-71
2021/10/07 06:52:57;;;;;;;6.18;4.00;;;;;;;7.14;95.71;99626.97;4168309;28;20040;-71
2021/10/07 06:54:58;;;;;;;8.13;4.80;;;;;;;7.22;94.90;99635.19;4167926;28;20052;-71
2021/10/07 06:56:59;;;;;;;11.70;5.07;;;;;;;7.33;94.92;99624.63;4167835;28;20048;-71
2021/10/07 06:58:59;;;;;;;5.95;4.30;;;;;;;7.41;94.42;99623.00;4168494;28;20041;-71
2021/10/07 07:00:59;;;;;;;6.63;4.38;;;;;;;7.51;93.38;99626.19;4167661;28;20048;-71
2021/10/07 07:03:00;;;;;;;6.80;4.20;;;;;;;7.59;92.99;99635.56;4169469;28;20038;-71
2021/10/07 07:05:02;;;;;;;9.68;4.25;;;;;;;7.65;93.49;99628.75;4167546;28;20115;-71
2021/10/07 07:07:02;;;;;;;7.80;4.00;;;;;;;7.75;94.17;99633.88;4168891;28;20748;-71
2021/10/07 07:09:03;;;;;;;7.30;3.83;;;;;;;7.81;94.89;99640.00;4169217;28;20037;-71
2021/10/07 07:11:03;;;;;;;10.10;4.47;;;;;;;7.84;94.73;99637.38;4169597;28;20041;-71
2021/10/07 07:13:05;;;;;;;8.60;4.45;;;;;;;7.89;93.77;99641.91;4168867;28;20044;-71
2021/10/07 07:15:06;;;;;;;5.40;4.03;;;;;;;7.98;93.83;99641.88;4168840;28;20048;-71
2021/10/07 07:17:06;;;;;;;6.43;4.35;;;;;;;8.02;93.59;99643.63;4168169;28;20041;-71
2021/10/07 07:19:08;;;;;;;7.35;3.92;;;;;;;8.09;93.50;99651.38;4168961;28;20262;-71
2021/10/07 07:21:09;;;;;;;5.72;3.75;;;;;;;8.15;91.62;99647.28;4168408;28;20088;-71
2021/10/07 07:23:09;;;;;;;8.40;4.22;;;;;;;8.22;92.04;99650.34;4166983;28;20053;-71
2021/10/07 07:25:10;;;;;;;5.85;4.40;;;;;;;8.27;92.34;99652.88;4168840;28;20480;-71
2021/10/07 07:27:11;;;;;;;7.00;3.58;;;;;;;8.33;91.52;99653.50;4168095;28;20107;-71
2021/10/07 07:29:12;;;;;;;4.75;3.60;;;;;;;8.42;90.72;99657.03;4168238;28;20041;-71
2021/10/07 07:31:12;;;;;;;7.55;4.22;;;;;;;8.49;92.71;99659.25;4168432;28;20037;-71
2021/10/07 07:33:12;;;;;;;6.13;3.60;;;;;;;8.52;91.86;99662.16;4166119;28;20048;-71
2021/10/07 07:35:13;;;;;;;5.80;3.80;;;;;;;8.56;91.94;99660.34;4167773;28;20111;-71
2021/10/07 07:37:14;;;;;;;6.05;3.70;;;;;;;8.61;91.78;99670.38;4169634;28;20060;-71
2021/10/07 07:39:14;;;;;;;4.93;3.00;;;;;;;8.66;92.25;99664.66;4169844;28;20044;-71
2021/10/07 07:41:16;;;;;;;5.32;3.58;;;;;;;8.68;92.19;99657.63;4171125;28;20041;-71
2021/10/07 07:43:20;;;;;;;5.73;3.40;;;;;;;8.75;91.95;99672.84;4170570;28;20053;-71
2021/10/07 07:45:20;;;;;;;7.28;4.28;;;;;;;8.79;93.25;99671.06;4172405;28;20329;-71
2021/10/07 07:47:21;;;;;;;8.98;4.60;;;;;;;8.83;92.81;99672.78;4169363;28;20436;-71
2021/10/07 07:49:22;;;;;;;5.90;3.95;;;;;;;8.88;92.84;99672.59;4171197;28;20064;-72
2021/10/07 07:51:22;;;;;;;8.85;4.85;;;;;;;8.94;92.68;99674.00;4170753;28;20492;-72
2021/10/07 07:53:22;;;;;;;7.43;4.45;;;;;;;8.98;93.26;99672.16;4170249;28;20067;-71
2021/10/07 07:55:23;;;;;;;7.43;4.32;;;;;;;9.05;93.19;99681.88;4171516;28;20049;-71
2021/10/07 07:57:23;;;;;;;5.05;3.80;;;;;;;9.08;93.11;99681.97;4169456;28;20514;-71
2021/10/07 07:59:24;;;;;;;7.50;4.15;;;;;;;9.10;93.15;99688.00;4170172;28;20044;-71
2021/10/07 08:01:24;;;;;;;6.85;4.47;;;;;;;9.14;92.39;99690.88;4169506;28;20496;-72
2021/10/07 08:03:25;;;;;;;8.25;4.85;;;;;;;9.13;92.22;99698.34;4170435;28;20041;-72
2021/10/07 08:05:26;;;;;;;7.53;4.55;;;;;;;9.15;92.12;99698.00;4170771;28;20049;-71
2021/10/07 08:07:27;;;;;;;7.22;5.63;;;;;;;9.16;92.39;99683.06;4170677;28;20369;-71
2021/10/07 08:09:27;;;;;;;6.82;4.30;;;;;;;9.19;91.96;99693.44;4171429;28;20542;-71
2021/10/07 08:11:28;;;;;;;5.57;4.10;;;;;;;9.22;92.58;99690.78;4169998;28;20044;-71
2021/10/07 08:13:28;;;;;;;5.57;4.15;;;;;;;9.22;90.38;99684.47;4169151;28;20409;-71
2021/10/07 08:15:29;;;;;;;4.82;3.97;;;;;;;9.23;91.29;99692.41;4170924;28;20041;-71
2021/10/07 08:17:29;;;;;;;6.32;4.40;;;;;;;9.26;89.93;99691.72;4170683;28;20044;-71
2021/10/07 08:19:30;;;;;;;5.60;3.88;;;;;;;9.30;90.45;99697.38;4171241;28;20056;-71
2021/10/07 08:21:30;;;;;;;7.47;4.28;;;;;;;9.33;90.56;99707.75;4170757;28;20052;-71
2021/10/07 08:23:34;;;;;;;5.93;4.25;;;;;;;9.33;91.15;99704.97;4169986;28;20041;-71
2021/10/07 08:25:35;;;;;;;6.15;3.90;;;;;;;9.33;90.37;99704.16;4170436;28;20048;-71
2021/10/07 08:27:36;;;;;;;5.50;3.92;;;;;;;9.35;91.29;99708.22;4170492;28;20087;-71
2021/10/07 08:29:36;;;;;;;6.95;3.63;;;;;;;9.44;90.49;99717.25;4169848;28;20064;-71
2021/10/07 08:31:37;;;;;;;4.50;3.67;;;;;;;9.53;90.07;99715.19;4171013;28;20045;-71
2021/10/07 08:33:38;;;;;;;4.93;3.60;;;;;;;9.61;88.99;99713.47;4170231;28;20056;-71
2021/10/07 08:35:39;;;;;;;8.73;3.97;;;;;;;9.68;89.11;99716.50;4170219;28;20053;-71
2021/10/07 08:37:39;;;;;;;4.70;3.20;;;;;;;9.75;88.13;99718.69;4171038;28;20067;-71
2021/10/07 08:39:40;;;;;;;6.88;3.40;;;;;;;9.80;88.18;99713.75;4168985;28;20048;-71
2021/10/07 08:41:41;;;;;;;4.80;3.33;;;;;;;9.81;87.45;99717.31;4170490;28;20049;-71
2021/10/07 08:43:41;;;;;;;4.75;3.00;;;;;;;9.82;86.04;99721.69;4168598;28;20215;-71
2021/10/07 08:45:42;;;;;;;3.95;3.15;;;;;;;9.83;86.94;99720.53;4171049;28;20118;-71
2021/10/07 08:47:44;;;;;;;4.32;2.88;;;;;;;9.91;87.32;99719.63;4168419;28;20641;-71
2021/10/07 08:49:44;;;;;;;8.38;3.22;;;;;;;9.96;87.73;99724.94;4168956;28;20041;-71
2021/10/07 08:51:45;;;;;;;5.82;2.97;;;;;;;10.03;85.96;99719.66;4169659;28;20471;-72
2021/10/07 08:53:45;;;;;;;4.20;2.92;;;;;;;10.10;86.87;99713.56;4169166;28;20048;-71
2021/10/07 08:55:45;;;;;;;4.88;2.95;;;;;;;10.19;86.96;99713.44;4170490;28;20045;-71
2021/10/07 08:57:46;;;;;;;7.32;2.50;;;;;;;10.27;85.92;99718.09;4169673;28;20056;-71
2021/10/07 08:59:46;;;;;;;2.90;2.10;;;;;;;10.34;85.16;99718.28;4169696;28;20056;-71
2021/10/07 09:01:48;;;;;;;2.42;1.88;;;;;;;10.41;83.10;99721.28;4170031;28;20111;-71
2021/10/07 09:03:48;;;;;;;2.35;2.00;;;;;;;10.49;81.46;99719.56;4167991;28;20056;-71
2021/10/07 09:05:49;;;;;;;3.42;2.17;;;;;;;10.51;80.35;99718.09;4170244;28;20045;-71
2021/10/07 09:07:52;;;;;;;3.47;2.00;;;;;;;10.55;80.88;99719.00;4168378;28;20037;-71
2021/10/07 09:09:53;;;;;;;4.28;1.75;;;;;;;10.57;80.88;99718.63;4169990;28;20045;-71
2021/10/07 09:11:55;;;;;;;4.00;1.75;;;;;;;10.58;79.98;99721.03;4152025;28;20517;-71
2021/10/07 09:14:04;;;;;;;2.22;1.63;;;;;;;10.60;79.62;99712.41;4169554;28;20044;-71
2021/10/07 09:16:05;;;;;;;2.90;1.90;;;;;;;10.72;78.50;99722.66;4168890;28;20100;-71
2021/10/07 09:18:05;;;;;;;2.15;1.70;;;;;;;10.78;77.32;99724.03;4169284;28;20029;-71
2021/10/07 09:20:06;;;;;;;2.28;1.50;;;;;;;10.83;77.15;99718.25;4170137;28;20289;-71
2021/10/07 09:22:14;;;;;;;2.03;1.60;;;;;;;10.91;78.12;99725.59;4169769;28;20384;-71
2021/10/07 09:24:35;;;;;;;2.17;1.73;;;;;;;10.97;77.71;99719.47;4168226;28;20040;-71
2021/10/07 09:26:35;;;;;;;3.17;1.95;;;;;;;11.05;77.67;99723.25;4169039;28;20033;-71
2021/10/07 09:28:53;;;;;;;2.15;1.95;;;;;;;11.09;75.82;99721.41;4169252;28;20228;-71
2021/10/07 09:30:55;;;;;;;2.72;1.80;;;;;;;11.10;76.84;99731.34;4169129;28;20039;-71
2021/10/07 09:33:00;;;;;;;3.05;1.63;;;;;;;11.13;76.58;99727.06;4169934;28;20079;-72
2021/10/07 09:35:02;;;;;;;2.53;1.63;;;;;;;11.15;77.15;99724.72;4168641;28;20037;-71
2021/10/07 09:37:24;;;;;;;1.90;1.60;;;;;;;11.25;76.83;99719.50;4170296;28;20044;-71
2021/10/07 09:39:25;;;;;;;3.90;1.52;;;;;;;11.33;75.18;99731.56;4168844;28;20037;-71